sensor_id;sensor_type;location;lat;lon;timestamp;P1;durP1;ratioP1;P2;durP2;ratioP2
18720;SDS011;9489;50.948;3.114;2023-04-24T00:01:31;10.88;;;9.98;;
18720;SDS011;9489;50.948;3.114;2023-04-24T00:03:59;10.52;;;9.52;;
18720;SDS011;9489;50.948;3.114;2023-04-24T00:06:27;10.77;;;9.48;;
18720;SDS011;9489;50.948;3.114;2023-04-24T00:09:01;9.23;;;8.38;;
18720;SDS011;9489;50.948;3.114;2023-04-24T00:11:28;8.93;;;8.15;;
18720;SDS011;9489;50.948;3.114;2023-04-24T00:13:55;10.65;;;8.52;;
18720;SDS011;9489;50.948;3.114;2023-04-24T00:16:21;7.93;;;7.13;;
18720;SDS011;9489;50.948;3.114;2023-04-24T00:18:47;8.80;;;7.60;;
18720;SDS011;9489;50.948;3.114;2023-04-24T00:21:14;8.23;;;7.53;;
18720;SDS011;9489;50.948;3.114;2023-04-24T00:23:42;8.27;;;7.55;;
18720;SDS011;9489;50.948;3.114;2023-04-24T00:26:09;8.85;;;8.05;;
18720;SDS011;9489;50.948;3.114;2023-04-24T00:28:35;8.68;;;7.82;;
18720;SDS011;9489;50.948;3.114;2023-04-24T00:31:01;8.82;;;8.02;;
18720;SDS011;9489;50.948;3.114;2023-04-24T00:33:26;9.15;;;8.35;;
18720;SDS011;9489;50.948;3.114;2023-04-24T00:35:52;9.32;;;8.43;;
18720;SDS011;9489;50.948;3.114;2023-04-24T00:38:18;9.63;;;8.77;;
18720;SDS011;9489;50.948;3.114;2023-04-24T00:40:43;10.77;;;9.68;;
18720;SDS011;9489;50.948;3.114;2023-04-24T00:43:09;11.30;;;10.20;;
18720;SDS011;9489;50.948;3.114;2023-04-24T00:45:36;13.48;;;12.30;;
18720;SDS011;9489;50.948;3.114;2023-04-24T00:48:01;15.77;;;14.27;;
18720;SDS011;9489;50.948;3.114;2023-04-24T00:50:28;15.63;;;14.15;;
18720;SDS011;9489;50.948;3.114;2023-04-24T00:52:53;15.55;;;13.98;;
18720;SDS011;9489;50.948;3.114;2023-04-24T00:55:20;15.50;;;13.63;;
18720;SDS011;9489;50.948;3.114;2023-04-24T00:57:45;17.88;;;16.08;;
18720;SDS011;9489;50.948;3.114;2023-04-24T01:00:12;17.90;;;16.27;;
18720;SDS011;9489;50.948;3.114;2023-04-24T01:02:41;18.40;;;16.65;;
18720;SDS011;9489;50.948;3.114;2023-04-24T01:05:12;18.58;;;16.88;;
18720;SDS011;9489;50.948;3.114;2023-04-24T01:07:40;19.30;;;17.40;;
18720;SDS011;9489;50.948;3.114;2023-04-24T01:10:09;19.17;;;17.40;;
18720;SDS011;9489;50.948;3.114;2023-04-24T01:12:35;19.55;;;17.65;;
18720;SDS011;9489;50.948;3.114;2023-04-24T01:15:00;19.90;;;18.05;;
18720;SDS011;9489;50.948;3.114;2023-04-24T01:17:26;20.33;;;18.33;;
18720;SDS011;9489;50.948;3.114;2023-04-24T01:19:52;19.83;;;17.90;;
18720;SDS011;9489;50.948;3.114;2023-04-24T01:22:22;20.13;;;17.92;;
18720;SDS011;9489;50.948;3.114;2023-04-24T01:24:47;21.65;;;19.50;;
18720;SDS011;9489;50.948;3.114;2023-04-24T01:27:13;21.88;;;19.77;;
18720;SDS011;9489;50.948;3.114;2023-04-24T01:29:39;21.80;;;19.77;;
18720;SDS011;9489;50.948;3.114;2023-04-24T01:32:06;22.77;;;20.58;;
18720;SDS011;9489;50.948;3.114;2023-04-24T01:34:32;22.30;;;20.20;;
18720;SDS011;9489;50.948;3.114;2023-04-24T01:36:59;23.60;;;21.20;;
18720;SDS011;9489;50.948;3.114;2023-04-24T01:39:25;24.17;;;21.80;;
18720;SDS011;9489;50.948;3.114;2023-04-24T01:41:53;23.10;;;20.80;;
18720;SDS011;9489;50.948;3.114;2023-04-24T01:44:20;21.83;;;19.55;;
18720;SDS011;9489;50.948;3.114;2023-04-24T01:46:46;20.98;;;18.75;;
18720;SDS011;9489;50.948;3.114;2023-04-24T01:49:12;20.52;;;18.30;;
18720;SDS011;9489;50.948;3.114;2023-04-24T01:51:37;20.17;;;17.05;;
18720;SDS011;9489;50.948;3.114;2023-04-24T01:54:03;20.60;;;17.40;;
18720;SDS011;9489;50.948;3.114;2023-04-24T01:56:30;21.15;;;16.60;;
18720;SDS011;9489;50.948;3.114;2023-04-24T01:58:58;21.10;;;16.88;;
18720;SDS011;9489;50.948;3.114;2023-04-24T02:01:25;22.40;;;17.33;;
18720;SDS011;9489;50.948;3.114;2023-04-24T02:03:51;18.92;;;16.55;;
18720;SDS011;9489;50.948;3.114;2023-04-24T02:06:16;20.20;;;16.27;;
18720;SDS011;9489;50.948;3.114;2023-04-24T02:08:42;22.95;;;15.60;;
18720;SDS011;9489;50.948;3.114;2023-04-24T02:11:08;17.88;;;13.50;;
18720;SDS011;9489;50.948;3.114;2023-04-24T02:13:34;13.90;;;11.32;;
18720;SDS011;9489;50.948;3.114;2023-04-24T02:16:00;12.40;;;8.93;;
18720;SDS011;9489;50.948;3.114;2023-04-24T02:18:26;10.55;;;8.32;;
18720;SDS011;9489;50.948;3.114;2023-04-24T02:20:51;10.32;;;6.97;;
18720;SDS011;9489;50.948;3.114;2023-04-24T02:23:17;9.07;;;7.13;;
18720;SDS011;9489;50.948;3.114;2023-04-24T02:25:43;9.27;;;6.45;;
18720;SDS011;9489;50.948;3.114;2023-04-24T02:28:09;8.98;;;7.20;;
18720;SDS011;9489;50.948;3.114;2023-04-24T02:30:34;9.25;;;6.82;;
18720;SDS011;9489;50.948;3.114;2023-04-24T02:33:00;9.23;;;6.95;;
18720;SDS011;9489;50.948;3.114;2023-04-24T02:35:26;8.10;;;7.15;;
18720;SDS011;9489;50.948;3.114;2023-04-24T02:37:51;9.98;;;8.30;;
18720;SDS011;9489;50.948;3.114;2023-04-24T02:40:17;13.75;;;10.90;;
18720;SDS011;9489;50.948;3.114;2023-04-24T02:42:43;16.75;;;12.60;;
18720;SDS011;9489;50.948;3.114;2023-04-24T02:45:08;19.48;;;13.90;;
18720;SDS011;9489;50.948;3.114;2023-04-24T02:47:34;20.02;;;14.25;;
18720;SDS011;9489;50.948;3.114;2023-04-24T02:50:01;16.77;;;15.07;;
18720;SDS011;9489;50.948;3.114;2023-04-24T02:52:27;18.40;;;15.55;;
18720;SDS011;9489;50.948;3.114;2023-04-24T02:54:53;22.77;;;17.38;;
18720;SDS011;9489;50.948;3.114;2023-04-24T02:57:19;23.48;;;18.48;;
18720;SDS011;9489;50.948;3.114;2023-04-24T02:59:44;19.73;;;17.00;;
18720;SDS011;9489;50.948;3.114;2023-04-24T03:02:10;24.02;;;17.70;;
18720;SDS011;9489;50.948;3.114;2023-04-24T03:04:36;20.92;;;18.65;;
18720;SDS011;9489;50.948;3.114;2023-04-24T03:07:01;23.25;;;18.48;;
18720;SDS011;9489;50.948;3.114;2023-04-24T03:09:27;22.85;;;17.17;;
18720;SDS011;9489;50.948;3.114;2023-04-24T03:11:53;23.10;;;17.63;;
18720;SDS011;9489;50.948;3.114;2023-04-24T03:14:18;20.33;;;17.58;;
18720;SDS011;9489;50.948;3.114;2023-04-24T03:16:44;20.38;;;18.15;;
18720;SDS011;9489;50.948;3.114;2023-04-24T03:19:10;22.40;;;17.60;;
18720;SDS011;9489;50.948;3.114;2023-04-24T03:21:35;22.60;;;17.60;;
18720;SDS011;9489;50.948;3.114;2023-04-24T03:24:05;24.20;;;17.52;;
18720;SDS011;9489;50.948;3.114;2023-04-24T03:26:34;20.73;;;17.92;;
18720;SDS011;9489;50.948;3.114;2023-04-24T03:29:00;22.35;;;18.00;;
18720;SDS011;9489;50.948;3.114;2023-04-24T03:31:26;20.55;;;17.77;;
18720;SDS011;9489;50.948;3.114;2023-04-24T03:33:52;24.65;;;16.63;;
18720;SDS011;9489;50.948;3.114;2023-04-24T03:36:17;21.42;;;16.55;;
18720;SDS011;9489;50.948;3.114;2023-04-24T03:38:44;19.65;;;15.32;;
18720;SDS011;9489;50.948;3.114;2023-04-24T03:41:10;18.52;;;15.98;;
18720;SDS011;9489;50.948;3.114;2023-04-24T03:43:36;19.58;;;14.82;;
18720;SDS011;9489;50.948;3.114;2023-04-24T03:46:03;19.67;;;14.63;;
18720;SDS011;9489;50.948;3.114;2023-04-24T03:48:28;18.83;;;14.52;;
18720;SDS011;9489;50.948;3.114;2023-04-24T03:50:55;17.35;;;14.45;;
18720;SDS011;9489;50.948;3.114;2023-04-24T03:53:20;16.13;;;14.43;;
18720;SDS011;9489;50.948;3.114;2023-04-24T03:55:46;18.33;;;14.55;;
18720;SDS011;9489;50.948;3.114;2023-04-24T03:58:12;21.63;;;14.38;;
18720;SDS011;9489;50.948;3.114;2023-04-24T04:00:40;20.00;;;13.18;;
18720;SDS011;9489;50.948;3.114;2023-04-24T04:03:06;16.02;;;13.32;;
18720;SDS011;9489;50.948;3.114;2023-04-24T04:05:32;15.40;;;13.45;;
18720;SDS011;9489;50.948;3.114;2023-04-24T04:07:57;15.77;;;14.00;;
18720;SDS011;9489;50.948;3.114;2023-04-24T04:10:23;18.13;;;14.48;;
18720;SDS011;9489;50.948;3.114;2023-04-24T04:12:49;17.92;;;13.45;;
18720;SDS011;9489;50.948;3.114;2023-04-24T04:15:14;17.55;;;13.85;;
18720;SDS011;9489;50.948;3.114;2023-04-24T04:17:40;18.23;;;14.52;;
18720;SDS011;9489;50.948;3.114;2023-04-24T04:20:06;19.67;;;14.52;;
18720;SDS011;9489;50.948;3.114;2023-04-24T04:22:37;16.02;;;14.07;;
18720;SDS011;9489;50.948;3.114;2023-04-24T04:25:03;19.30;;;14.68;;
18720;SDS011;9489;50.948;3.114;2023-04-24T04:27:29;18.73;;;16.63;;
18720;SDS011;9489;50.948;3.114;2023-04-24T04:29:57;22.85;;;18.00;;
18720;SDS011;9489;50.948;3.114;2023-04-24T04:32:26;22.55;;;16.65;;
18720;SDS011;9489;50.948;3.114;2023-04-24T04:34:52;18.30;;;16.23;;
18720;SDS011;9489;50.948;3.114;2023-04-24T04:37:18;20.45;;;18.33;;
18720;SDS011;9489;50.948;3.114;2023-04-24T04:39:44;21.77;;;17.38;;
18720;SDS011;9489;50.948;3.114;2023-04-24T04:42:10;25.20;;;17.30;;
18720;SDS011;9489;50.948;3.114;2023-04-24T04:44:35;22.83;;;17.38;;
18720;SDS011;9489;50.948;3.114;2023-04-24T04:47:01;20.08;;;17.50;;
18720;SDS011;9489;50.948;3.114;2023-04-24T04:49:30;23.75;;;17.20;;
18720;SDS011;9489;50.948;3.114;2023-04-24T04:51:56;23.02;;;17.20;;
18720;SDS011;9489;50.948;3.114;2023-04-24T04:54:22;21.02;;;16.58;;
18720;SDS011;9489;50.948;3.114;2023-04-24T04:56:49;23.02;;;16.58;;
18720;SDS011;9489;50.948;3.114;2023-04-24T04:59:15;19.80;;;16.63;;
18720;SDS011;9489;50.948;3.114;2023-04-24T05:01:41;23.35;;;18.00;;
18720;SDS011;9489;50.948;3.114;2023-04-24T05:04:07;22.67;;;16.83;;
18720;SDS011;9489;50.948;3.114;2023-04-24T05:06:32;20.83;;;17.33;;
18720;SDS011;9489;50.948;3.114;2023-04-24T05:08:58;19.83;;;17.10;;
18720;SDS011;9489;50.948;3.114;2023-04-24T05:11:24;18.92;;;17.00;;
18720;SDS011;9489;50.948;3.114;2023-04-24T05:13:50;20.45;;;16.75;;
18720;SDS011;9489;50.948;3.114;2023-04-24T05:16:15;26.83;;;18.48;;
18720;SDS011;9489;50.948;3.114;2023-04-24T05:18:41;22.42;;;17.42;;
18720;SDS011;9489;50.948;3.114;2023-04-24T05:21:07;21.42;;;17.70;;
18720;SDS011;9489;50.948;3.114;2023-04-24T05:23:32;26.00;;;18.10;;
18720;SDS011;9489;50.948;3.114;2023-04-24T05:25:58;22.95;;;18.63;;
18720;SDS011;9489;50.948;3.114;2023-04-24T05:28:23;25.42;;;18.75;;
18720;SDS011;9489;50.948;3.114;2023-04-24T05:30:53;23.85;;;19.25;;
18720;SDS011;9489;50.948;3.114;2023-04-24T05:33:20;23.98;;;19.27;;
18720;SDS011;9489;50.948;3.114;2023-04-24T05:35:47;21.30;;;19.00;;
18720;SDS011;9489;50.948;3.114;2023-04-24T05:38:13;22.77;;;18.52;;
18720;SDS011;9489;50.948;3.114;2023-04-24T05:40:39;26.75;;;19.95;;
18720;SDS011;9489;50.948;3.114;2023-04-24T05:43:05;21.08;;;16.80;;
18720;SDS011;9489;50.948;3.114;2023-04-24T05:45:30;26.08;;;16.65;;
18720;SDS011;9489;50.948;3.114;2023-04-24T05:47:56;19.50;;;15.75;;
18720;SDS011;9489;50.948;3.114;2023-04-24T05:50:22;21.40;;;15.00;;
18720;SDS011;9489;50.948;3.114;2023-04-24T05:52:48;18.42;;;15.55;;
18720;SDS011;9489;50.948;3.114;2023-04-24T05:55:13;16.77;;;14.00;;
18720;SDS011;9489;50.948;3.114;2023-04-24T05:57:42;17.17;;;13.88;;
18720;SDS011;9489;50.948;3.114;2023-04-24T06:00:08;15.90;;;13.73;;
18720;SDS011;9489;50.948;3.114;2023-04-24T06:02:37;17.50;;;13.38;;
18720;SDS011;9489;50.948;3.114;2023-04-24T06:05:03;20.75;;;13.52;;
18720;SDS011;9489;50.948;3.114;2023-04-24T06:07:29;20.27;;;13.25;;
18720;SDS011;9489;50.948;3.114;2023-04-24T06:09:55;16.50;;;13.00;;
18720;SDS011;9489;50.948;3.114;2023-04-24T06:12:22;15.68;;;13.00;;
18720;SDS011;9489;50.948;3.114;2023-04-24T06:14:47;16.95;;;12.25;;
18720;SDS011;9489;50.948;3.114;2023-04-24T06:17:13;14.23;;;12.73;;
18720;SDS011;9489;50.948;3.114;2023-04-24T06:19:39;15.98;;;12.25;;
18720;SDS011;9489;50.948;3.114;2023-04-24T06:22:05;19.92;;;13.55;;
18720;SDS011;9489;50.948;3.114;2023-04-24T06:24:31;15.90;;;11.75;;
18720;SDS011;9489;50.948;3.114;2023-04-24T06:26:57;15.60;;;10.80;;
18720;SDS011;9489;50.948;3.114;2023-04-24T06:29:24;16.73;;;11.43;;
18720;SDS011;9489;50.948;3.114;2023-04-24T06:31:50;13.48;;;10.23;;
18720;SDS011;9489;50.948;3.114;2023-04-24T06:34:16;17.48;;;10.60;;
18720;SDS011;9489;50.948;3.114;2023-04-24T06:36:41;13.43;;;10.05;;
18720;SDS011;9489;50.948;3.114;2023-04-24T06:39:07;13.93;;;9.68;;
18720;SDS011;9489;50.948;3.114;2023-04-24T06:41:33;16.40;;;9.75;;
18720;SDS011;9489;50.948;3.114;2023-04-24T06:43:58;19.42;;;10.45;;
18720;SDS011;9489;50.948;3.114;2023-04-24T06:46:24;15.90;;;10.10;;
18720;SDS011;9489;50.948;3.114;2023-04-24T06:48:51;15.95;;;10.77;;
18720;SDS011;9489;50.948;3.114;2023-04-24T06:51:22;15.18;;;10.15;;
18720;SDS011;9489;50.948;3.114;2023-04-24T06:53:51;17.13;;;9.88;;
18720;SDS011;9489;50.948;3.114;2023-04-24T06:56:17;19.85;;;9.20;;
18720;SDS011;9489;50.948;3.114;2023-04-24T06:58:43;12.68;;;8.70;;
18720;SDS011;9489;50.948;3.114;2023-04-24T07:01:10;14.30;;;9.50;;
18720;SDS011;9489;50.948;3.114;2023-04-24T07:03:36;12.90;;;8.63;;
18720;SDS011;9489;50.948;3.114;2023-04-24T07:06:01;14.80;;;8.88;;
18720;SDS011;9489;50.948;3.114;2023-04-24T07:08:28;12.55;;;8.50;;
18720;SDS011;9489;50.948;3.114;2023-04-24T07:10:55;13.43;;;8.25;;
18720;SDS011;9489;50.948;3.114;2023-04-24T07:13:21;13.20;;;8.43;;
18720;SDS011;9489;50.948;3.114;2023-04-24T07:15:48;11.90;;;8.18;;
18720;SDS011;9489;50.948;3.114;2023-04-24T07:18:19;12.00;;;6.82;;
18720;SDS011;9489;50.948;3.114;2023-04-24T07:20:45;9.45;;;6.80;;
18720;SDS011;9489;50.948;3.114;2023-04-24T07:23:11;13.85;;;6.88;;
18720;SDS011;9489;50.948;3.114;2023-04-24T07:25:36;10.68;;;6.63;;
18720;SDS011;9489;50.948;3.114;2023-04-24T07:28:03;8.77;;;5.95;;
18720;SDS011;9489;50.948;3.114;2023-04-24T07:30:29;11.15;;;7.00;;
18720;SDS011;9489;50.948;3.114;2023-04-24T07:32:58;13.52;;;7.70;;
18720;SDS011;9489;50.948;3.114;2023-04-24T07:35:24;11.88;;;7.10;;
18720;SDS011;9489;50.948;3.114;2023-04-24T07:37:53;13.25;;;6.65;;
18720;SDS011;9489;50.948;3.114;2023-04-24T07:40:19;11.32;;;6.72;;
18720;SDS011;9489;50.948;3.114;2023-04-24T07:42:46;11.65;;;6.63;;
18720;SDS011;9489;50.948;3.114;2023-04-24T07:45:13;10.65;;;6.45;;
18720;SDS011;9489;50.948;3.114;2023-04-24T07:47:40;9.52;;;5.95;;
18720;SDS011;9489;50.948;3.114;2023-04-24T07:50:08;8.05;;;4.97;;
18720;SDS011;9489;50.948;3.114;2023-04-24T07:52:35;7.60;;;5.10;;
18720;SDS011;9489;50.948;3.114;2023-04-24T07:55:01;12.30;;;5.68;;
18720;SDS011;9489;50.948;3.114;2023-04-24T07:57:27;9.68;;;5.35;;
18720;SDS011;9489;50.948;3.114;2023-04-24T07:59:53;9.63;;;4.85;;
18720;SDS011;9489;50.948;3.114;2023-04-24T08:02:19;10.57;;;5.72;;
18720;SDS011;9489;50.948;3.114;2023-04-24T08:04:44;11.88;;;5.63;;
18720;SDS011;9489;50.948;3.114;2023-04-24T08:07:10;8.73;;;6.00;;
18720;SDS011;9489;50.948;3.114;2023-04-24T08:09:38;10.80;;;6.05;;
18720;SDS011;9489;50.948;3.114;2023-04-24T08:12:03;10.85;;;6.35;;
18720;SDS011;9489;50.948;3.114;2023-04-24T08:14:29;8.30;;;6.07;;
18720;SDS011;9489;50.948;3.114;2023-04-24T08:16:55;9.43;;;7.63;;
18720;SDS011;9489;50.948;3.114;2023-04-24T08:19:21;12.43;;;6.93;;
18720;SDS011;9489;50.948;3.114;2023-04-24T08:21:47;11.55;;;7.18;;
18720;SDS011;9489;50.948;3.114;2023-04-24T08:24:13;12.65;;;7.60;;
18720;SDS011;9489;50.948;3.114;2023-04-24T08:26:39;8.90;;;7.38;;
18720;SDS011;9489;50.948;3.114;2023-04-24T08:29:04;10.27;;;8.13;;
18720;SDS011;9489;50.948;3.114;2023-04-24T08:31:31;12.38;;;7.88;;
18720;SDS011;9489;50.948;3.114;2023-04-24T08:33:58;12.85;;;9.15;;
18720;SDS011;9489;50.948;3.114;2023-04-24T08:36:25;15.02;;;9.52;;
18720;SDS011;9489;50.948;3.114;2023-04-24T08:38:51;13.50;;;10.07;;
18720;SDS011;9489;50.948;3.114;2023-04-24T08:41:17;11.90;;;9.77;;
18720;SDS011;9489;50.948;3.114;2023-04-24T08:43:45;11.50;;;10.20;;
18720;SDS011;9489;50.948;3.114;2023-04-24T08:46:12;11.52;;;10.13;;
18720;SDS011;9489;50.948;3.114;2023-04-24T08:48:38;13.52;;;10.55;;
18720;SDS011;9489;50.948;3.114;2023-04-24T08:51:06;15.40;;;10.95;;
18720;SDS011;9489;50.948;3.114;2023-04-24T08:53:33;16.23;;;10.95;;
18720;SDS011;9489;50.948;3.114;2023-04-24T08:56:00;13.77;;;10.52;;
18720;SDS011;9489;50.948;3.114;2023-04-24T08:58:27;12.35;;;10.02;;
18720;SDS011;9489;50.948;3.114;2023-04-24T09:00:54;13.68;;;11.93;;
18720;SDS011;9489;50.948;3.114;2023-04-24T09:03:20;13.27;;;11.10;;
18720;SDS011;9489;50.948;3.114;2023-04-24T09:05:47;13.23;;;11.43;;
18720;SDS011;9489;50.948;3.114;2023-04-24T09:08:14;12.07;;;11.02;;
18720;SDS011;9489;50.948;3.114;2023-04-24T09:10:42;12.75;;;10.65;;
18720;SDS011;9489;50.948;3.114;2023-04-24T09:13:08;12.98;;;10.65;;
18720;SDS011;9489;50.948;3.114;2023-04-24T09:15:35;10.40;;;9.32;;
18720;SDS011;9489;50.948;3.114;2023-04-24T09:18:01;14.75;;;11.32;;
18720;SDS011;9489;50.948;3.114;2023-04-24T09:20:27;12.18;;;10.40;;
18720;SDS011;9489;50.948;3.114;2023-04-24T09:22:53;12.80;;;10.15;;
18720;SDS011;9489;50.948;3.114;2023-04-24T09:25:21;10.45;;;9.52;;
18720;SDS011;9489;50.948;3.114;2023-04-24T09:27:47;10.68;;;9.57;;
18720;SDS011;9489;50.948;3.114;2023-04-24T09:30:13;10.13;;;8.98;;
18720;SDS011;9489;50.948;3.114;2023-04-24T09:32:45;14.02;;;9.30;;
18720;SDS011;9489;50.948;3.114;2023-04-24T09:35:12;10.20;;;8.48;;
18720;SDS011;9489;50.948;3.114;2023-04-24T09:37:39;13.65;;;10.00;;
18720;SDS011;9489;50.948;3.114;2023-04-24T09:40:07;12.25;;;9.70;;
18720;SDS011;9489;50.948;3.114;2023-04-24T09:42:37;16.58;;;10.80;;
18720;SDS011;9489;50.948;3.114;2023-04-24T09:45:03;12.52;;;11.05;;
18720;SDS011;9489;50.948;3.114;2023-04-24T09:47:39;12.65;;;9.25;;
18720;SDS011;9489;50.948;3.114;2023-04-24T09:50:11;12.88;;;9.75;;
18720;SDS011;9489;50.948;3.114;2023-04-24T09:52:45;12.52;;;9.43;;
18720;SDS011;9489;50.948;3.114;2023-04-24T09:55:13;14.13;;;10.40;;
18720;SDS011;9489;50.948;3.114;2023-04-24T09:57:47;12.75;;;9.55;;
18720;SDS011;9489;50.948;3.114;2023-04-24T10:00:18;13.23;;;9.32;;
18720;SDS011;9489;50.948;3.114;2023-04-24T10:02:54;10.98;;;8.35;;
18720;SDS011;9489;50.948;3.114;2023-04-24T10:05:24;16.70;;;9.70;;
18720;SDS011;9489;50.948;3.114;2023-04-24T10:07:55;13.20;;;8.80;;
18720;SDS011;9489;50.948;3.114;2023-04-24T10:10:22;10.05;;;8.88;;
18720;SDS011;9489;50.948;3.114;2023-04-24T10:12:48;9.10;;;8.00;;
18720;SDS011;9489;50.948;3.114;2023-04-24T10:15:16;9.50;;;7.60;;
18720;SDS011;9489;50.948;3.114;2023-04-24T10:17:46;8.13;;;7.32;;
18720;SDS011;9489;50.948;3.114;2023-04-24T10:20:18;10.63;;;7.72;;
18720;SDS011;9489;50.948;3.114;2023-04-24T10:22:46;10.57;;;7.25;;
18720;SDS011;9489;50.948;3.114;2023-04-24T10:25:16;7.70;;;6.50;;
18720;SDS011;9489;50.948;3.114;2023-04-24T10:27:43;8.90;;;6.60;;
18720;SDS011;9489;50.948;3.114;2023-04-24T10:30:11;6.50;;;5.90;;
18720;SDS011;9489;50.948;3.114;2023-04-24T10:32:37;7.90;;;6.07;;
18720;SDS011;9489;50.948;3.114;2023-04-24T10:35:03;7.18;;;5.35;;
18720;SDS011;9489;50.948;3.114;2023-04-24T10:37:34;6.90;;;4.50;;
18720;SDS011;9489;50.948;3.114;2023-04-24T10:40:07;7.45;;;5.20;;
18720;SDS011;9489;50.948;3.114;2023-04-24T10:42:35;6.13;;;4.30;;
18720;SDS011;9489;50.948;3.114;2023-04-24T10:45:05;5.80;;;4.18;;
18720;SDS011;9489;50.948;3.114;2023-04-24T10:47:40;5.28;;;4.03;;
18720;SDS011;9489;50.948;3.114;2023-04-24T10:50:10;6.25;;;4.28;;
18720;SDS011;9489;50.948;3.114;2023-04-24T10:52:48;5.15;;;3.97;;
18720;SDS011;9489;50.948;3.114;2023-04-24T10:58:07;9.02;;;5.32;;
18720;SDS011;9489;50.948;3.114;2023-04-24T11:00:33;6.72;;;4.78;;
18720;SDS011;9489;50.948;3.114;2023-04-24T11:03:04;7.50;;;5.10;;
18720;SDS011;9489;50.948;3.114;2023-04-24T11:08:24;7.13;;;5.53;;
18720;SDS011;9489;50.948;3.114;2023-04-24T11:10:55;6.30;;;4.90;;
18720;SDS011;9489;50.948;3.114;2023-04-24T11:13:22;6.75;;;4.90;;
18720;SDS011;9489;50.948;3.114;2023-04-24T11:18:41;5.95;;;4.47;;
18720;SDS011;9489;50.948;3.114;2023-04-24T11:21:15;6.95;;;4.57;;
18720;SDS011;9489;50.948;3.114;2023-04-24T11:23:42;6.57;;;4.40;;
18720;SDS011;9489;50.948;3.114;2023-04-24T11:26:11;5.32;;;4.65;;
18720;SDS011;9489;50.948;3.114;2023-04-24T11:28:48;7.25;;;5.80;;
18720;SDS011;9489;50.948;3.114;2023-04-24T11:34:13;5.15;;;3.97;;
18720;SDS011;9489;50.948;3.114;2023-04-24T11:36:42;4.75;;;3.55;;
18720;SDS011;9489;50.948;3.114;2023-04-24T11:39:12;4.97;;;3.45;;
18720;SDS011;9489;50.948;3.114;2023-04-24T11:41:38;5.95;;;4.10;;
18720;SDS011;9489;50.948;3.114;2023-04-24T11:44:05;5.43;;;3.55;;
18720;SDS011;9489;50.948;3.114;2023-04-24T11:46:33;7.03;;;3.88;;
18720;SDS011;9489;50.948;3.114;2023-04-24T11:48:59;4.60;;;3.35;;
18720;SDS011;9489;50.948;3.114;2023-04-24T11:51:26;4.10;;;3.50;;
18720;SDS011;9489;50.948;3.114;2023-04-24T11:53:55;4.18;;;3.72;;
18720;SDS011;9489;50.948;3.114;2023-04-24T11:56:22;5.78;;;4.13;;
18720;SDS011;9489;50.948;3.114;2023-04-24T11:58:51;4.45;;;3.90;;
18720;SDS011;9489;50.948;3.114;2023-04-24T12:01:19;6.82;;;4.03;;
18720;SDS011;9489;50.948;3.114;2023-04-24T12:03:49;6.07;;;4.75;;
18720;SDS011;9489;50.948;3.114;2023-04-24T12:06:16;4.50;;;4.13;;
18720;SDS011;9489;50.948;3.114;2023-04-24T12:08:45;5.20;;;3.88;;
18720;SDS011;9489;50.948;3.114;2023-04-24T12:11:14;4.35;;;3.15;;
18720;SDS011;9489;50.948;3.114;2023-04-24T12:13:41;7.15;;;3.97;;
18720;SDS011;9489;50.948;3.114;2023-04-24T12:16:06;3.88;;;3.35;;
18720;SDS011;9489;50.948;3.114;2023-04-24T12:18:32;5.22;;;3.20;;
18720;SDS011;9489;50.948;3.114;2023-04-24T12:23:44;5.07;;;3.35;;
18720;SDS011;9489;50.948;3.114;2023-04-24T12:26:10;4.90;;;3.00;;
18720;SDS011;9489;50.948;3.114;2023-04-24T12:28:37;4.82;;;3.40;;
18720;SDS011;9489;50.948;3.114;2023-04-24T12:31:03;3.90;;;2.45;;
18720;SDS011;9489;50.948;3.114;2023-04-24T12:33:34;5.97;;;3.17;;
18720;SDS011;9489;50.948;3.114;2023-04-24T12:36:00;3.55;;;2.88;;
18720;SDS011;9489;50.948;3.114;2023-04-24T12:38:27;6.03;;;3.08;;
18720;SDS011;9489;50.948;3.114;2023-04-24T12:41:30;6.20;;;3.60;;
18720;SDS011;9489;50.948;3.114;2023-04-24T12:43:50;5.82;;;3.45;;
18720;SDS011;9489;50.948;3.114;2023-04-24T12:46:17;4.57;;;3.58;;
18720;SDS011;9489;50.948;3.114;2023-04-24T12:48:43;5.32;;;3.65;;
18720;SDS011;9489;50.948;3.114;2023-04-24T12:51:08;4.70;;;3.40;;
18720;SDS011;9489;50.948;3.114;2023-04-24T12:53:34;12.63;;;9.18;;
18720;SDS011;9489;50.948;3.114;2023-04-24T12:55:59;6.13;;;4.40;;
18720;SDS011;9489;50.948;3.114;2023-04-24T12:58:25;4.88;;;3.88;;
18720;SDS011;9489;50.948;3.114;2023-04-24T13:00:51;5.07;;;3.97;;
18720;SDS011;9489;50.948;3.114;2023-04-24T13:03:17;4.57;;;3.58;;
18720;SDS011;9489;50.948;3.114;2023-04-24T13:05:43;4.78;;;3.53;;
18720;SDS011;9489;50.948;3.114;2023-04-24T13:08:09;5.07;;;2.95;;
18720;SDS011;9489;50.948;3.114;2023-04-24T13:10:34;4.13;;;2.88;;
18720;SDS011;9489;50.948;3.114;2023-04-24T13:13:00;3.97;;;2.67;;
18720;SDS011;9489;50.948;3.114;2023-04-24T13:15:26;3.95;;;2.58;;
18720;SDS011;9489;50.948;3.114;2023-04-24T13:17:52;2.92;;;2.50;;
18720;SDS011;9489;50.948;3.114;2023-04-24T13:20:18;2.90;;;2.55;;
18720;SDS011;9489;50.948;3.114;2023-04-24T13:22:43;4.03;;;2.90;;
18720;SDS011;9489;50.948;3.114;2023-04-24T13:25:09;3.95;;;2.55;;
18720;SDS011;9489;50.948;3.114;2023-04-24T13:27:35;3.78;;;2.50;;
18720;SDS011;9489;50.948;3.114;2023-04-24T13:30:03;4.07;;;3.05;;
18720;SDS011;9489;50.948;3.114;2023-04-24T13:32:29;3.97;;;3.00;;
18720;SDS011;9489;50.948;3.114;2023-04-24T13:34:56;3.88;;;2.80;;
18720;SDS011;9489;50.948;3.114;2023-04-24T13:37:22;4.78;;;2.47;;
18720;SDS011;9489;50.948;3.114;2023-04-24T13:39:48;4.03;;;2.85;;
18720;SDS011;9489;50.948;3.114;2023-04-24T13:42:14;4.38;;;2.72;;
18720;SDS011;9489;50.948;3.114;2023-04-24T13:44:40;4.85;;;2.70;;
18720;SDS011;9489;50.948;3.114;2023-04-24T13:47:05;4.10;;;2.95;;
18720;SDS011;9489;50.948;3.114;2023-04-24T13:49:31;3.88;;;2.72;;
18720;SDS011;9489;50.948;3.114;2023-04-24T13:51:57;2.88;;;2.15;;
18720;SDS011;9489;50.948;3.114;2023-04-24T13:54:22;4.32;;;3.20;;
18720;SDS011;9489;50.948;3.114;2023-04-24T13:56:50;4.25;;;2.83;;
18720;SDS011;9489;50.948;3.114;2023-04-24T13:59:17;4.85;;;2.65;;
18720;SDS011;9489;50.948;3.114;2023-04-24T14:01:44;3.75;;;2.83;;
18720;SDS011;9489;50.948;3.114;2023-04-24T14:04:10;3.42;;;2.90;;
18720;SDS011;9489;50.948;3.114;2023-04-24T14:06:36;3.80;;;2.83;;
18720;SDS011;9489;50.948;3.114;2023-04-24T14:09:01;3.15;;;2.90;;
18720;SDS011;9489;50.948;3.114;2023-04-24T14:11:27;4.72;;;3.03;;
18720;SDS011;9489;50.948;3.114;2023-04-24T14:13:54;4.03;;;3.40;;
18720;SDS011;9489;50.948;3.114;2023-04-24T14:16:21;4.00;;;3.38;;
18720;SDS011;9489;50.948;3.114;2023-04-24T14:18:47;5.15;;;3.03;;
18720;SDS011;9489;50.948;3.114;2023-04-24T14:21:12;5.25;;;3.50;;
18720;SDS011;9489;50.948;3.114;2023-04-24T14:23:38;4.75;;;3.28;;
18720;SDS011;9489;50.948;3.114;2023-04-24T14:26:04;5.90;;;3.53;;
18720;SDS011;9489;50.948;3.114;2023-04-24T14:28:29;4.22;;;3.00;;
18720;SDS011;9489;50.948;3.114;2023-04-24T14:30:55;4.63;;;3.53;;
18720;SDS011;9489;50.948;3.114;2023-04-24T14:33:22;4.10;;;3.67;;
18720;SDS011;9489;50.948;3.114;2023-04-24T14:35:47;3.20;;;2.70;;
18720;SDS011;9489;50.948;3.114;2023-04-24T14:38:14;4.80;;;2.40;;
18720;SDS011;9489;50.948;3.114;2023-04-24T14:40:40;3.35;;;2.13;;
18720;SDS011;9489;50.948;3.114;2023-04-24T14:43:06;2.47;;;1.98;;
18720;SDS011;9489;50.948;3.114;2023-04-24T14:45:32;3.10;;;2.13;;
18720;SDS011;9489;50.948;3.114;2023-04-24T14:47:57;3.25;;;2.45;;
18720;SDS011;9489;50.948;3.114;2023-04-24T14:50:23;7.05;;;2.55;;
18720;SDS011;9489;50.948;3.114;2023-04-24T14:52:53;4.45;;;3.00;;
18720;SDS011;9489;50.948;3.114;2023-04-24T14:55:19;5.90;;;2.78;;
18720;SDS011;9489;50.948;3.114;2023-04-24T14:57:45;3.88;;;2.53;;
18720;SDS011;9489;50.948;3.114;2023-04-24T15:00:11;4.00;;;2.70;;